Time;durP1;ratioP1;P1;durP2;ratioP2;P2;SDS_P1;SDS_P2;PMS_P1;PMS_P2;Temp;Humidity;BMP_temperature;BMP_pressure;BME280_temperature;BME280_humidity;BME280_pressure;Samples;Min_cycle;Max_cycle;Signal;HPM_P1;HPM_P2
2021/10/03 00:00:11;;;;;;;5.10;0.60;;;17.10;96.40;;;;;;5014331;28;20064;-81
2021/10/03 00:02:40;;;;;;;0.70;0.30;;;17.10;96.30;;;;;;5014175;28;20030;-80
2021/10/03 00:05:06;;;;;;;1.98;0.52;;;17.10;96.30;;;;;;5014179;28;20026;-81
2021/10/03 00:07:34;;;;;;;0.90;0.40;;;17.10;96.20;;;;;;4997875;28;20048;-79
2021/10/03 00:10:00;;;;;;;1.70;0.50;;;17.10;96.20;;;;;;4997919;28;20025;-79
2021/10/03 00:12:29;;;;;;;3.60;0.40;;;17.20;96.10;;;;;;4997743;28;20030;-77
2021/10/03 00:14:55;;;;;;;1.40;0.50;;;17.20;96.10;;;;;;5014041;28;20108;-81
2021/10/03 00:17:20;;;;;;;1.70;0.47;;;17.20;96.00;;;;;;4997601;28;20483;-81
2021/10/03 00:19:46;;;;;;;2.05;0.50;;;17.20;96.00;;;;;;5013856;28;20136;-79
2021/10/03 00:22:12;;;;;;;1.80;0.50;;;17.30;96.00;;;;;;5013776;28;20038;-78
2021/10/03 00:24:38;;;;;;;0.95;0.30;;;17.30;96.00;;;;;;5013890;28;20494;-79
2021/10/03 00:27:04;;;;;;;1.88;0.40;;;17.30;96.00;;;;;;5014927;28;20558;-81
2021/10/03 00:29:29;;;;;;;1.45;0.30;;;17.30;95.90;;;;;;5013805;28;20026;-79
2021/10/03 00:31:55;;;;;;;1.95;0.45;;;17.30;95.90;;;;;;4997397;28;20111;-81
2021/10/03 00:34:21;;;;;;;0.93;0.40;;;17.40;95.90;;;;;;5013901;28;20493;-79
2021/10/03 00:36:46;;;;;;;1.17;0.40;;;17.40;95.90;;;;;;4996962;28;20482;-80
2021/10/03 00:39:12;;;;;;;2.72;0.38;;;17.40;95.70;;;;;;5013818;28;20488;-80
2021/10/03 00:41:38;;;;;;;1.90;0.50;;;17.40;95.70;;;;;;4997209;28;20028;-79
2021/10/03 00:44:04;;;;;;;1.25;0.40;;;17.40;95.60;;;;;;5013720;28;20026;-78
2021/10/03 00:46:30;;;;;;;0.50;0.20;;;17.40;95.60;;;;;;4997227;28;20470;-80
2021/10/03 00:48:56;;;;;;;3.13;0.50;;;17.50;95.50;;;;;;5013316;28;20516;-80
2021/10/03 00:51:22;;;;;;;2.20;0.32;;;17.50;95.50;;;;;;4996875;28;20030;-80
2021/10/03 00:53:47;;;;;;;0.52;0.20;;;17.50;95.50;;;;;;4996755;28;20109;-84
2021/10/03 00:56:15;;;;;;;2.05;0.40;;;17.60;95.40;;;;;;4997091;28;20030;-80
2021/10/03 00:58:42;;;;;;;0.93;0.30;;;17.60;95.40;;;;;;4997182;28;20068;-81
2021/10/03 01:01:08;;;;;;;0.80;0.30;;;17.60;95.40;;;;;;5013393;28;20029;-81
2021/10/03 01:03:35;;;;;;;0.93;0.30;;;17.60;95.50;;;;;;5013091;28;20034;-83
2021/10/03 01:06:02;;;;;;;0.75;0.20;;;17.60;95.50;;;;;;5013098;28;20401;-81
2021/10/03 01:08:28;;;;;;;3.13;0.30;;;17.60;95.50;;;;;;4996871;28;20029;-82
2021/10/03 01:10:55;;;;;;;1.05;0.30;;;17.60;95.50;;;;;;4996614;28;20117;-80
2021/10/03 01:13:23;;;;;;;2.70;0.30;;;17.60;95.60;;;;;;4996736;28;20545;-81
2021/10/03 01:15:51;;;;;;;0.93;0.40;;;17.60;95.60;;;;;;5013206;28;20030;-79
2021/10/03 01:18:17;;;;;;;2.28;0.30;;;17.60;95.60;;;;;;4996848;28;20061;-79
2021/10/03 01:20:43;;;;;;;1.63;0.28;;;17.50;95.70;;;;;;5012786;28;20042;-75
2021/10/03 01:23:09;;;;;;;3.05;0.28;;;17.50;95.80;;;;;;4996151;28;20037;-76
2021/10/03 01:25:39;;;;;;;0.43;0.30;;;17.50;96.00;;;;;;5012769;28;20026;-75
2021/10/03 01:28:06;;;;;;;0.73;0.30;;;17.50;96.10;;;;;;5013845;28;20030;-75
2021/10/03 01:30:32;;;;;;;0.82;0.22;;;17.50;96.10;;;;;;5014254;28;20033;-73
2021/10/03 01:32:58;;;;;;;0.63;0.30;;;17.40;96.20;;;;;;5012997;28;20022;-75
2021/10/03 01:35:24;;;;;;;0.80;0.30;;;17.40;96.40;;;;;;5014004;28;20029;-76
2021/10/03 01:37:51;;;;;;;1.08;0.30;;;17.40;96.40;;;;;;5012674;28;20530;-81
2021/10/03 01:40:18;;;;;;;0.93;0.30;;;17.30;96.60;;;;;;5012839;28;20026;-75
2021/10/03 01:42:43;;;;;;;1.40;0.30;;;17.30;96.70;;;;;;5013845;28;20029;-76
2021/10/03 01:45:14;;;;;;;0.60;0.30;;;17.30;96.80;;;;;;5013735;28;20033;-76
2021/10/03 01:48:04;;;;;;;0.70;0.25;;;17.20;97.00;;;;;;5012811;28;20030;-75
2021/10/03 01:50:31;;;;;;;0.85;0.40;;;17.20;97.30;;;;;;5012400;28;20490;-76
2021/10/03 01:52:56;;;;;;;0.77;0.30;;;17.20;97.50;;;;;;5012544;28;20103;-76
2021/10/03 01:55:22;;;;;;;0.65;0.30;;;17.10;97.60;;;;;;5012534;28;20450;-76
2021/10/03 01:57:48;;;;;;;0.75;0.30;;;17.10;97.60;;;;;;5012647;28;20030;-76
2021/10/03 02:00:14;;;;;;;1.23;0.40;;;17.10;97.70;;;;;;5012576;28;20034;-77
2021/10/03 02:02:40;;;;;;;1.27;0.30;;;17.10;97.80;;;;;;5012469;28;20030;-78
2021/10/03 02:05:06;;;;;;;2.25;0.30;;;17.10;97.80;;;;;;5012623;28;20041;-75
2021/10/03 02:07:31;;;;;;;1.17;0.40;;;17.10;97.90;;;;;;5012219;28;20080;-75
2021/10/03 02:09:57;;;;;;;1.00;0.50;;;17.10;98.00;;;;;;5012275;28;20061;-77
2021/10/03 02:12:23;;;;;;;0.70;0.30;;;17.10;98.00;;;;;;4996069;28;20038;-76
2021/10/03 02:14:49;;;;;;;1.35;0.30;;;17.00;98.10;;;;;;4995846;28;20084;-78
2021/10/03 02:17:15;;;;;;;0.68;0.30;;;17.10;98.20;;;;;;4995698;28;20030;-74
2021/10/03 02:19:43;;;;;;;0.85;0.40;;;17.10;98.20;;;;;;4995633;28;20030;-77
2021/10/03 02:22:09;;;;;;;0.63;0.30;;;17.00;98.20;;;;;;5011925;28;20081;-79
2021/10/03 02:24:35;;;;;;;1.10;0.47;;;17.10;98.30;;;;;;5011913;28;20525;-78
2021/10/03 02:27:02;;;;;;;0.93;0.40;;;17.10;98.30;;;;;;4995902;28;20433;-77
2021/10/03 02:29:28;;;;;;;1.20;0.40;;;17.00;98.30;;;;;;4995583;28;20029;-77
2021/10/03 02:31:54;;;;;;;2.50;0.30;;;17.10;98.30;;;;;;5013186;28;20038;-75
2021/10/03 02:34:21;;;;;;;0.60;0.30;;;17.10;98.30;;;;;;4995711;28;20161;-76
2021/10/03 02:36:47;;;;;;;0.60;0.30;;;17.10;98.50;;;;;;5012033;28;20121;-78
2021/10/03 02:39:13;;;;;;;1.25;0.40;;;17.10;98.40;;;;;;5012055;28;20427;-77
2021/10/03 02:41:38;;;;;;;0.90;0.40;;;17.00;98.50;;;;;;5012510;28;20034;-78
2021/10/03 02:44:05;;;;;;;1.20;0.50;;;17.00;98.60;;;;;;5011847;28;20117;-76
2021/10/03 02:46:32;;;;;;;0.73;0.30;;;17.00;98.70;;;;;;4995848;28;20450;-78
2021/10/03 02:48:57;;;;;;;0.95;0.50;;;17.00;98.90;;;;;;5012274;28;20048;-78
2021/10/03 02:51:25;;;;;;;0.82;0.40;;;16.90;98.90;;;;;;5013093;28;20466;-77
2021/10/03 02:53:52;;;;;;;0.73;0.45;;;16.90;99.00;;;;;;5012461;28;20022;-81
2021/10/03 02:56:19;;;;;;;1.23;0.50;;;16.90;99.20;;;;;;5011616;28;20397;-80
2021/10/03 02:58:46;;;;;;;1.80;0.50;;;16.90;99.30;;;;;;5013388;28;20034;-79
2021/10/03 03:01:11;;;;;;;2.83;0.60;;;16.90;99.30;;;;;;5015973;28;20049;-80
2021/10/03 03:03:37;;;;;;;2.60;1.00;;;16.90;99.30;;;;;;5015486;28;20030;-79
2021/10/03 03:06:07;;;;;;;0.75;0.40;;;16.80;99.50;;;;;;5015718;28;20593;-79
2021/10/03 03:08:34;;;;;;;0.90;0.50;;;16.80;99.50;;;;;;5015583;28;20026;-79
2021/10/03 03:11:00;;;;;;;1.20;0.55;;;16.90;99.70;;;;;;4998896;28;20033;-80
2021/10/03 03:13:26;;;;;;;1.33;0.63;;;16.80;99.70;;;;;;5015216;28;20390;-84
2021/10/03 03:15:52;;;;;;;1.20;0.50;;;16.80;99.70;;;;;;4998796;28;20030;-81
2021/10/03 03:18:17;;;;;;;1.83;0.57;;;16.80;99.70;;;;;;5015032;28;20113;-78
2021/10/03 03:20:43;;;;;;;1.30;0.40;;;16.80;99.70;;;;;;4999042;28;20034;-78
2021/10/03 03:23:09;;;;;;;2.38;0.43;;;16.80;99.80;;;;;;5015348;28;20468;-77
2021/10/03 03:25:35;;;;;;;1.55;0.70;;;16.90;99.80;;;;;;4998541;28;20080;-77
2021/10/03 03:28:02;;;;;;;1.33;0.57;;;16.80;99.90;;;;;;4998930;28;20113;-77
2021/10/03 03:30:28;;;;;;;1.33;0.60;;;16.90;99.80;;;;;;4998450;28;20022;-80
2021/10/03 03:32:53;;;;;;;1.83;0.63;;;16.80;99.70;;;;;;5014982;28;20089;-78
2021/10/03 03:35:19;;;;;;;1.25;0.55;;;16.90;99.90;;;;;;4998451;28;20022;-80
2021/10/03 03:37:45;;;;;;;1.77;0.77;;;16.90;99.90;;;;;;4998624;28;20041;-79
2021/10/03 03:40:12;;;;;;;1.67;0.80;;;16.90;99.80;;;;;;4998396;28;20495;-77
2021/10/03 03:42:39;;;;;;;2.50;0.82;;;16.90;99.80;;;;;;4998496;28;20057;-79
2021/10/03 03:45:05;;;;;;;4.93;1.02;;;16.90;99.70;;;;;;4998480;28;20037;-78
2021/10/03 03:47:31;;;;;;;3.28;0.80;;;16.90;99.80;;;;;;5014440;28;20553;-81
2021/10/03 03:49:57;;;;;;;1.42;0.38;;;16.80;99.50;;;;;;5014912;28;20149;-76
2021/10/03 03:52:23;;;;;;;3.17;0.40;;;16.70;99.30;;;;;;5014685;28;20065;-75
2021/10/03 03:54:49;;;;;;;2.25;0.35;;;16.50;99.20;;;;;;5014514;28;20060;-76
2021/10/03 03:57:15;;;;;;;3.72;0.50;;;16.40;99.20;;;;;;5015755;28;20034;-75
2021/10/03 03:59:41;;;;;;;1.40;0.30;;;16.30;99.20;;;;;;5014708;28;20029;-76
2021/10/03 04:02:07;;;;;;;1.77;0.30;;;16.20;99.30;;;;;;5014220;28;20024;-76
2021/10/03 04:04:32;;;;;;;1.52;0.25;;;16.00;99.30;;;;;;5015662;28;20038;-78
2021/10/03 04:06:58;;;;;;;4.18;0.25;;;16.00;99.30;;;;;;5014264;28;20037;-77
2021/10/03 04:09:23;;;;;;;2.55;0.40;;;16.00;99.40;;;;;;5014002;28;20105;-76
2021/10/03 04:11:49;;;;;;;3.00;0.47;;;15.90;99.50;;;;;;4997323;28;20026;-77
2021/10/03 04:14:15;;;;;;;1.00;0.40;;;15.80;99.50;;;;;;5014216;28;20026;-76
2021/10/03 04:16:40;;;;;;;2.33;0.60;;;15.80;99.50;;;;;;4998138;28;20029;-76
2021/10/03 04:19:06;;;;;;;2.58;0.73;;;15.80;99.60;;;;;;5014079;28;20031;-78
2021/10/03 04:21:32;;;;;;;1.85;0.40;;;15.70;99.60;;;;;;4997719;28;20365;-76
2021/10/03 04:23:57;;;;;;;2.63;0.40;;;15.60;99.60;;;;;;5013688;28;20103;-75
2021/10/03 04:26:24;;;;;;;2.22;0.40;;;15.60;99.50;;;;;;5013934;28;20017;-78
2021/10/03 04:28:51;;;;;;;2.15;0.30;;;15.50;99.50;;;;;;5014076;28;20018;-77
2021/10/03 04:31:17;;;;;;;3.72;0.40;;;15.40;99.40;;;;;;4997939;28;20385;-75
2021/10/03 04:33:42;;;;;;;3.17;0.50;;;15.20;99.30;;;;;;4997711;28;20018;-75
2021/10/03 04:36:12;;;;;;;3.13;0.60;;;15.20;99.40;;;;;;5015160;28;20029;-75
2021/10/03 04:38:39;;;;;;;1.23;0.40;;;15.10;99.40;;;;;;5013604;28;20082;-75
2021/10/03 04:41:05;;;;;;;3.20;0.45;;;15.10;99.40;;;;;;5013947;28;20113;-75
2021/10/03 04:43:31;;;;;;;2.80;0.40;;;15.00;99.50;;;;;;5014524;28;20030;-75
2021/10/03 04:45:57;;;;;;;1.65;0.52;;;15.00;99.50;;;;;;5013405;28;20180;-75
2021/10/03 04:48:23;;;;;;;2.28;0.50;;;14.90;99.50;;;;;;5014543;28;20045;-76
2021/10/03 04:50:48;;;;;;;2.70;0.57;;;14.90;99.50;;;;;;5014610;28;20033;-75
2021/10/03 04:53:14;;;;;;;2.58;0.60;;;14.90;99.60;;;;;;4997043;28;20382;-76
2021/10/03 04:55:39;;;;;;;6.15;0.70;;;14.90;99.60;;;;;;5013411;28;20057;-76
2021/10/03 04:58:05;;;;;;;4.07;0.73;;;14.90;99.60;;;;;;5014564;28;20485;-76
2021/10/03 05:00:31;;;;;;;5.22;0.85;;;14.90;99.60;;;;;;4996740;28;20121;-76
2021/10/03 05:02:56;;;;;;;3.22;0.63;;;14.90;99.60;;;;;;5013425;28;20113;-76
2021/10/03 05:05:22;;;;;;;4.38;0.40;;;15.00;99.70;;;;;;5013507;28;20413;-76
2021/10/03 05:07:48;;;;;;;1.75;0.63;;;15.00;99.70;;;;;;5014316;28;20026;-76
2021/10/03 05:10:14;;;;;;;2.58;0.45;;;15.00;99.60;;;;;;4996817;28;20418;-75
2021/10/03 05:12:40;;;;;;;1.85;0.45;;;14.90;99.50;;;;;;5013045;28;20030;-77
2021/10/03 05:15:06;;;;;;;2.50;0.32;;;14.80;99.40;;;;;;5013929;28;20083;-76
2021/10/03 05:17:31;;;;;;;3.13;0.40;;;14.80;99.40;;;;;;5012865;28;20022;-76
2021/10/03 05:19:57;;;;;;;2.30;0.50;;;14.80;99.40;;;;;;5012883;28;20037;-76
2021/10/03 05:22:24;;;;;;;4.35;0.60;;;14.70;99.40;;;;;;5014337;28;20045;-76
2021/10/03 05:24:51;;;;;;;3.17;0.45;;;14.70;99.40;;;;;;5013859;28;20057;-76
2021/10/03 05:27:17;;;;;;;4.32;0.40;;;14.70;99.50;;;;;;5012724;28;20037;-77
2021/10/03 05:29:43;;;;;;;3.45;0.50;;;14.60;99.50;;;;;;5012798;28;20113;-77
2021/10/03 05:32:08;;;;;;;2.95;0.47;;;14.70;99.50;;;;;;5012346;28;20050;-77
2021/10/03 05:34:34;;;;;;;4.00;0.47;;;14.60;99.60;;;;;;4995865;28;20045;-76
2021/10/03 05:37:00;;;;;;;1.73;0.57;;;14.70;99.50;;;;;;5013875;28;20042;-77
2021/10/03 05:39:25;;;;;;;4.80;0.40;;;14.70;99.50;;;;;;5012688;28;20034;-77
2021/10/03 05:41:51;;;;;;;5.30;0.57;;;14.70;99.50;;;;;;5012637;28;20022;-77
2021/10/03 05:44:16;;;;;;;2.28;0.43;;;14.60;99.50;;;;;;5014051;28;20033;-76
2021/10/03 05:46:42;;;;;;;6.88;0.70;;;14.70;99.50;;;;;;5012615;28;20033;-76
2021/10/03 05:49:08;;;;;;;3.15;0.63;;;14.70;99.50;;;;;;5012947;28;20026;-77
2021/10/03 05:51:35;;;;;;;2.80;0.60;;;14.70;99.50;;;;;;5013706;28;20381;-76
2021/10/03 05:54:01;;;;;;;6.35;0.70;;;14.70;99.50;;;;;;4996628;28;20049;-77
2021/10/03 05:56:27;;;;;;;5.32;0.73;;;14.70;99.50;;;;;;5012631;28;20478;-77
2021/10/03 05:58:53;;;;;;;4.60;0.95;;;14.70;99.50;;;;;;4992144;28;20027;-77
2021/10/03 06:01:18;;;;;;;6.10;1.10;;;14.70;99.50;;;;;;5014811;28;20474;-78
2021/10/03 06:03:44;;;;;;;4.60;0.85;;;14.70;99.50;;;;;;4996231;28;20036;-79
2021/10/03 06:06:10;;;;;;;7.00;0.80;;;14.70;99.50;;;;;;5015036;28;20065;-79
2021/10/03 06:08:35;;;;;;;4.22;1.00;;;14.70;99.50;;;;;;5013974;28;20029;-78
2021/10/03 06:11:01;;;;;;;5.78;1.00;;;14.70;99.60;;;;;;5031832;28;20030;-78
2021/10/03 06:13:26;;;;;;;5.53;1.15;;;14.70;99.80;;;;;;5033053;28;20033;-78
2021/10/03 06:15:54;;;;;;;7.93;1.10;;;14.70;99.90;;;;;;5032965;28;20386;-78
2021/10/03 06:18:21;;;;;;;5.70;0.93;;;14.70;99.60;;;;;;5015594;28;20545;-78
2021/10/03 06:20:47;;;;;;;5.38;1.08;;;14.70;99.60;;;;;;5031830;28;20022;-78
2021/10/03 06:23:15;;;;;;;5.30;1.20;;;14.70;99.70;;;;;;5031596;28;20037;-79
2021/10/03 06:25:41;;;;;;;7.00;1.60;;;14.80;99.70;;;;;;5031594;28;20034;-78
2021/10/03 06:28:07;;;;;;;6.20;1.50;;;14.80;99.70;;;;;;5031947;28;20401;-78
2021/10/03 06:30:34;;;;;;;3.25;1.33;;;14.80;99.70;;;;;;5032289;28;20034;-76
2021/10/03 06:33:01;;;;;;;3.78;1.27;;;14.80;99.70;;;;;;5032094;28;20386;-78
2021/10/03 06:35:28;;;;;;;7.45;1.55;;;14.80;99.70;;;;;;5019296;28;20037;-78
2021/10/03 06:37:54;;;;;;;6.30;1.50;;;14.80;99.70;;;;;;5037019;28;20025;-77
2021/10/03 06:40:20;;;;;;;6.03;1.73;;;14.80;99.70;;;;;;5035988;28;20091;-76
2021/10/03 06:42:46;;;;;;;4.63;1.27;;;14.80;99.70;;;;;;5022860;28;20050;-76
2021/10/03 06:45:11;;;;;;;6.00;1.63;;;14.80;99.70;;;;;;5016427;28;20038;-77
2021/10/03 06:47:37;;;;;;;7.50;2.13;;;14.80;99.70;;;;;;5017107;28;20432;-77
2021/10/03 06:50:04;;;;;;;5.70;1.60;;;14.90;99.70;;;;;;5016065;28;20044;-77
2021/10/03 06:52:30;;;;;;;5.70;1.77;;;14.80;99.70;;;;;;5015470;28;20389;-77
2021/10/03 06:54:56;;;;;;;5.75;1.75;;;14.90;99.70;;;;;;5016856;28;20026;-77
2021/10/03 06:57:22;;;;;;;5.15;1.63;;;14.80;99.90;;;;;;5015884;28;20038;-77
2021/10/03 06:59:47;;;;;;;4.68;1.83;;;14.90;99.80;;;;;;4999328;28;20104;-77
2021/10/03 07:02:22;;;;;;;4.10;1.65;;;14.90;99.80;;;;;;5015560;28;20173;-77
2021/10/03 07:04:48;;;;;;;6.50;2.03;;;14.90;99.70;;;;;;5017060;28;20377;-77
2021/10/03 07:07:13;;;;;;;8.07;1.58;;;14.90;99.70;;;;;;5015246;28;20025;-77
2021/10/03 07:09:39;;;;;;;3.53;1.23;;;14.90;99.80;;;;;;5015670;28;20477;-77
2021/10/03 07:12:05;;;;;;;4.82;1.30;;;14.90;99.70;;;;;;5015326;28;20540;-77
2021/10/03 07:14:31;;;;;;;8.52;1.48;;;14.90;99.70;;;;;;5015194;28;20038;-76
2021/10/03 07:16:57;;;;;;;5.38;1.45;;;14.90;99.60;;;;;;4998812;28;20057;-76
2021/10/03 07:19:22;;;;;;;3.22;1.05;;;14.90;99.60;;;;;;5014986;28;20045;-76
2021/10/03 07:21:48;;;;;;;7.70;1.45;;;14.80;99.80;;;;;;5015163;28;20025;-78
2021/10/03 07:24:13;;;;;;;5.00;1.52;;;14.90;99.60;;;;;;5014968;28;20489;-79
2021/10/03 07:26:39;;;;;;;4.10;1.38;;;14.90;99.50;;;;;;5014996;28;20069;-79
2021/10/03 07:29:05;;;;;;;4.30;1.55;;;14.90;99.60;;;;;;5014915;28;20036;-79
2021/10/03 07:31:31;;;;;;;5.13;1.48;;;14.90;99.50;;;;;;4987282;28;20466;-79
2021/10/03 07:33:57;;;;;;;5.40;1.27;;;14.90;99.50;;;;;;5012735;28;20034;-79
2021/10/03 07:36:22;;;;;;;7.03;1.42;;;14.90;99.60;;;;;;5014814;28;20493;-78
2021/10/03 07:38:49;;;;;;;6.88;2.00;;;14.90;99.50;;;;;;5016056;28;20069;-79
2021/10/03 07:41:15;;;;;;;7.00;1.92;;;14.90;99.50;;;;;;4998335;28;20434;-79
2021/10/03 07:43:43;;;;;;;5.10;1.63;;;14.80;99.50;;;;;;4997330;28;20026;-79
2021/10/03 07:46:11;;;;;;;4.32;1.55;;;14.80;99.50;;;;;;5014579;28;20601;-79
2021/10/03 07:48:37;;;;;;;5.35;1.67;;;14.90;99.60;;;;;;4991102;28;20034;-78
2021/10/03 07:51:02;;;;;;;5.47;1.67;;;14.80;99.50;;;;;;5015600;28;20022;-79
2021/10/03 07:53:28;;;;;;;4.15;1.58;;;14.80;99.50;;;;;;5015764;28;20107;-79
2021/10/03 07:55:54;;;;;;;4.07;1.80;;;14.80;99.50;;;;;;5015482;28;20030;-78
2021/10/03 07:58:20;;;;;;;4.25;1.60;;;14.80;99.40;;;;;;5014950;28;20033;-78
2021/10/03 08:00:45;;;;;;;5.03;1.63;;;14.80;99.40;;;;;;4998123;28;20026;-78
2021/10/03 08:03:11;;;;;;;4.75;1.63;;;14.80;99.50;;;;;;5030745;28;20065;-78
2021/10/03 08:05:37;;;;;;;4.68;1.40;;;14.80;99.50;;;;;;5014359;28;20481;-79
2021/10/03 08:08:04;;;;;;;3.92;1.60;;;14.80;99.50;;;;;;5030620;28;20062;-78
2021/10/03 08:10:30;;;;;;;4.80;1.40;;;14.70;99.50;;;;;;5014474;28;20466;-79
2021/10/03 08:12:56;;;;;;;2.53;0.98;;;14.70;99.50;;;;;;5015442;28;20109;-79
2021/10/03 08:15:22;;;;;;;4.38;1.10;;;14.70;99.50;;;;;;5030359;28;20109;-79
2021/10/03 08:17:48;;;;;;;4.53;1.30;;;14.80;99.50;;;;;;5015140;28;20022;-79
2021/10/03 08:20:13;;;;;;;2.35;0.98;;;14.70;99.40;;;;;;5007699;28;20097;-78
2021/10/03 08:22:39;;;;;;;1.67;0.70;;;14.70;99.70;;;;;;5005164;28;20014;-79
2021/10/03 08:25:07;;;;;;;1.90;0.60;;;14.70;99.40;;;;;;5030208;28;20088;-81
2021/10/03 08:27:35;;;;;;;2.55;0.75;;;14.70;99.40;;;;;;5014834;28;20025;-79
2021/10/03 08:30:01;;;;;;;3.05;0.80;;;14.60;99.40;;;;;;5015013;28;20022;-79
2021/10/03 08:32:27;;;;;;;2.13;0.70;;;14.60;99.40;;;;;;5013977;28;20030;-81
2021/10/03 08:34:53;;;;;;;4.97;0.90;;;14.50;99.30;;;;;;4997345;28;20112;-79
2021/10/03 08:37:19;;;;;;;3.65;0.77;;;14.50;99.10;;;;;;5013824;28;20037;-80
2021/10/03 08:39:45;;;;;;;2.15;0.50;;;14.40;99.00;;;;;;5014905;28;20030;-80
2021/10/03 08:42:10;;;;;;;2.40;0.43;;;14.30;99.00;;;;;;5013037;28;20025;-72
2021/10/03 08:44:37;;;;;;;4.32;0.50;;;14.30;99.10;;;;;;5013691;28;20462;-72
2021/10/03 08:47:04;;;;;;;5.65;0.50;;;14.20;99.10;;;;;;5014659;28;20041;-72
2021/10/03 08:49:30;;;;;;;1.52;0.35;;;14.20;99.20;;;;;;4997269;28;20022;-73
2021/10/03 08:51:55;;;;;;;2.50;0.50;;;14.10;99.20;;;;;;5013388;28;20029;-72
2021/10/03 08:54:21;;;;;;;2.05;0.50;;;14.20;99.20;;;;;;5012509;28;20101;-73
2021/10/03 08:56:47;;;;;;;3.15;0.50;;;14.10;99.20;;;;;;5012458;28;20034;-73
2021/10/03 08:59:13;;;;;;;2.92;0.50;;;14.10;99.20;;;;;;5014778;28;20478;-73
2021/10/03 09:01:53;;;;;;;4.55;0.52;;;14.10;99.20;;;;;;5013235;28;20156;-79
2021/10/03 09:04:29;;;;;;;3.30;0.60;;;14.10;99.20;;;;;;5013208;28;20026;-79
2021/10/03 09:07:00;;;;;;;2.00;0.45;;;14.00;99.20;;;;;;5014493;28;20401;-79
2021/10/03 09:09:48;;;;;;;4.18;1.10;;;14.00;99.20;;;;;;5013223;28;20026;-73
2021/10/03 09:12:35;;;;;;;2.30;0.70;;;14.00;99.20;;;;;;5013035;28;20117;-74
2021/10/03 09:15:04;;;;;;;3.42;0.50;;;14.00;99.30;;;;;;4994641;28;20022;-72
2021/10/03 09:17:31;;;;;;;2.38;0.65;;;14.00;99.30;;;;;;5005540;28;20181;-72
2021/10/03 09:20:06;;;;;;;2.72;0.60;;;14.00;99.30;;;;;;5014182;28;20061;-80
2021/10/03 09:22:39;;;;;;;1.38;0.50;;;14.00;99.30;;;;;;5014264;28;20088;-79
2021/10/03 09:25:05;;;;;;;2.05;0.55;;;14.00;99.30;;;;;;5012844;28;20065;-79
2021/10/03 09:27:45;;;;;;;4.10;0.70;;;14.00;99.40;;;;;;5012662;28;20041;-73
2021/10/03 09:30:11;;;;;;;1.55;0.65;;;13.90;99.40;;;;;;5012613;28;20080;-74
2021/10/03 09:32:37;;;;;;;1.92;0.70;;;14.00;99.40;;;;;;5013165;28;20030;-74
2021/10/03 09:35:03;;;;;;;3.05;0.88;;;14.00;99.40;;;;;;5014066;28;20100;-74
2021/10/03 09:37:31;;;;;;;2.33;0.85;;;14.00;99.40;;;;;;5012852;28;20033;-75
2021/10/03 09:40:06;;;;;;;4.72;1.33;;;14.00;99.50;;;;;;4996479;28;20022;-75
2021/10/03 09:42:33;;;;;;;2.35;0.70;;;14.00;99.50;;;;;;5013826;28;20033;-74
2021/10/03 09:45:16;;;;;;;3.33;0.90;;;14.10;99.60;;;;;;5013025;28;20029;-74
2021/10/03 09:47:44;;;;;;;2.25;1.00;;;14.10;99.90;;;;;;5013614;28;20037;-75
2021/10/03 09:50:14;;;;;;;3.03;1.00;;;14.10;99.60;;;;;;5012678;28;20022;-79
2021/10/03 09:52:41;;;;;;;2.38;0.77;;;14.20;99.70;;;;;;5012557;28;20022;-79
2021/10/03 09:55:13;;;;;;;2.22;0.85;;;14.20;99.70;;;;;;5012894;28;20050;-80
2021/10/03 09:57:41;;;;;;;1.77;0.82;;;14.20;99.70;;;;;;5012591;28;20109;-79
2021/10/03 10:00:08;;;;;;;2.17;0.80;;;14.20;99.70;;;;;;5013723;28;20553;-79
2021/10/03 10:02:34;;;;;;;2.00;0.80;;;14.30;99.70;;;;;;5013375;28;20010;-74
2021/10/03 10:05:00;;;;;;;2.22;0.90;;;14.30;99.80;;;;;;5013589;28;20068;-74
2021/10/03 10:07:26;;;;;;;2.25;0.90;;;14.40;99.90;;;;;;5013681;28;20486;-74
2021/10/03 10:09:52;;;;;;;1.73;0.70;;;14.40;99.90;;;;;;5014812;28;20366;-74
2021/10/03 10:12:25;;;;;;;3.22;0.93;;;14.50;99.90;;;;;;4999780;28;20026;-80
2021/10/03 10:15:09;;;;;;;2.90;0.67;;;14.50;99.90;;;;;;5016372;28;20034;-80
2021/10/03 10:17:39;;;;;;;1.08;0.60;;;14.50;99.90;;;;;;5017525;28;20157;-74
2021/10/03 10:20:17;;;;;;;2.33;0.70;;;14.60;99.90;;;;;;5000536;28;20026;-73
2021/10/03 10:22:54;;;;;;;2.83;0.70;;;14.60;99.90;;;;;;5017548;28;20481;-73
2021/10/03 10:25:46;;;;;;;1.83;0.63;;;14.70;99.90;;;;;;5017551;28;20042;-79
2021/10/03 10:28:21;;;;;;;1.25;0.40;;;14.70;99.90;;;;;;5016025;28;20022;-79
2021/10/03 10:31:21;;;;;;;1.77;0.40;;;14.80;99.90;;;;;;5017227;28;20030;-79
2021/10/03 10:33:49;;;;;;;1.33;0.30;;;14.80;99.90;;;;;;5032075;28;20038;-74
2021/10/03 10:36:21;;;;;;;1.50;0.30;;;14.80;99.90;;;;;;5016887;28;20096;-73
2021/10/03 10:39:08;;;;;;;0.88;0.40;;;14.80;99.90;;;;;;5017208;28;20045;-74
2021/10/03 10:41:46;;;;;;;0.63;0.30;;;14.90;99.90;;;;;;5017217;28;20037;-73
2021/10/03 10:44:24;;;;;;;1.92;0.20;;;14.90;99.90;;;;;;5017375;28;20369;-74
2021/10/03 10:47:06;;;;;;;1.25;0.50;;;14.90;99.90;;;;;;5017242;28;20057;-73
2021/10/03 10:49:50;;;;;;;1.20;0.40;;;15.00;99.90;;;;;;5017245;28;20057;-73
2021/10/03 10:52:18;;;;;;;0.68;0.22;;;14.90;99.90;;;;;;5016234;28;20373;-73
2021/10/03 10:54:59;;;;;;;0.35;0.30;;;15.00;99.90;;;;;;5016344;28;20044;-73
2021/10/03 10:57:48;;;;;;;1.70;0.30;;;15.00;99.90;;;;;;5017104;28;20490;-74
2021/10/03 11:00:22;;;;;;;0.75;0.30;;;15.10;99.90;;;;;;5017042;28;20026;-73
2021/10/03 11:02:52;;;;;;;1.75;0.20;;;15.20;99.90;;;;;;5016782;28;20028;-73
2021/10/03 11:05:36;;;;;;;1.73;0.22;;;15.30;99.90;;;;;;5016427;28;20032;-73
2021/10/03 11:08:07;;;;;;;0.40;0.20;;;15.40;99.90;;;;;;5016758;28;20037;-73
2021/10/03 11:10:58;;;;;;;1.15;0.30;;;15.40;99.90;;;;;;5015846;28;20076;-73
2021/10/03 11:13:57;;;;;;;0.95;0.20;;;15.40;99.90;;;;;;5016641;28;20018;-73
2021/10/03 11:16:37;;;;;;;0.80;0.20;;;15.40;99.90;;;;;;5016824;28;20034;-73
2021/10/03 11:19:13;;;;;;;0.52;0.30;;;15.40;99.90;;;;;;5015949;28;20100;-73
2021/10/03 11:21:45;;;;;;;0.47;0.20;;;15.50;99.90;;;;;;5015207;28;20022;-73
2021/10/03 11:24:19;;;;;;;0.35;0.20;;;15.50;99.90;;;;;;5014813;28;20042;-73
2021/10/03 11:26:45;;;;;;;1.00;0.40;;;15.50;99.80;;;;;;5016373;28;20381;-73
2021/10/03 11:29:11;;;;;;;1.05;0.60;;;15.50;99.80;;;;;;5016151;28;20034;-73
2021/10/03 11:31:45;;;;;;;1.25;0.35;;;15.50;99.70;;;;;;5015415;28;20036;-75
2021/10/03 11:34:24;;;;;;;0.90;0.40;;;15.50;99.90;;;;;;5016181;28;20020;-74
2021/10/03 11:36:50;;;;;;;0.95;0.40;;;15.50;99.70;;;;;;5016012;28;20401;-75
2021/10/03 11:39:17;;;;;;;1.15;0.50;;;15.40;99.60;;;;;;5014937;28;20310;-75
2021/10/03 11:41:49;;;;;;;0.73;0.43;;;15.50;99.70;;;;;;5016125;28;20054;-79
2021/10/03 11:44:22;;;;;;;1.10;0.50;;;15.50;99.80;;;;;;5016723;28;20021;-79
2021/10/03 11:47:05;;;;;;;1.40;0.52;;;15.50;99.70;;;;;;5014951;28;20568;-79
2021/10/03 11:49:33;;;;;;;1.95;0.60;;;15.50;99.70;;;;;;5015754;28;20104;-75
2021/10/03 11:52:00;;;;;;;3.17;0.40;;;15.50;99.60;;;;;;5015924;28;20018;-75
2021/10/03 11:54:47;;;;;;;1.42;0.57;;;15.60;99.80;;;;;;5014570;28;20125;-76
2021/10/03 11:57:27;;;;;;;0.88;0.40;;;15.50;99.50;;;;;;5015846;28;20084;-76
2021/10/03 12:00:25;;;;;;;0.90;0.40;;;15.50;99.40;;;;;;5014635;28;20092;-75
2021/10/03 12:02:53;;;;;;;1.05;0.30;;;15.50;99.50;;;;;;5015609;28;20032;-75
2021/10/03 12:05:22;;;;;;;1.15;0.38;;;15.50;99.50;;;;;;5015491;28;20018;-75
2021/10/03 12:08:11;;;;;;;0.57;0.30;;;15.60;99.50;;;;;;5014279;28;20053;-74
2021/10/03 12:10:48;;;;;;;1.55;0.40;;;15.60;99.60;;;;;;5015498;28;20022;-74
2021/10/03 12:13:14;;;;;;;1.00;0.47;;;15.60;99.40;;;;;;5015725;28;20013;-74
2021/10/03 12:15:42;;;;;;;2.38;0.80;;;15.50;99.30;;;;;;5014026;28;20026;-74
2021/10/03 12:18:29;;;;;;;1.77;0.57;;;15.50;99.40;;;;;;5015201;28;20049;-74
2021/10/03 12:21:06;;;;;;;1.17;0.50;;;15.60;99.50;;;;;;5013846;28;20417;-75
2021/10/03 12:23:43;;;;;;;1.48;0.50;;;15.70;99.60;;;;;;5013849;28;20032;-74
2021/10/03 12:26:25;;;;;;;0.68;0.30;;;15.70;99.60;;;;;;5015357;28;20021;-74
2021/10/03 12:29:06;;;;;;;0.70;0.30;;;15.80;99.60;;;;;;5015187;28;20077;-74
2021/10/03 12:31:54;;;;;;;0.65;0.40;;;15.80;99.50;;;;;;5014328;28;20148;-74
2021/10/03 12:34:22;;;;;;;0.50;0.30;;;15.90;99.40;;;;;;5013659;28;20033;-74
2021/10/03 12:36:54;;;;;;;0.90;0.40;;;15.90;99.30;;;;;;5014857;28;20055;-73
2021/10/03 12:39:27;;;;;;;0.82;0.50;;;15.80;99.00;;;;;;5013584;28;20493;-72
2021/10/03 12:41:55;;;;;;;1.30;0.70;;;15.70;98.80;;;;;;5014854;28;20026;-72
2021/10/03 12:44:24;;;;;;;2.30;1.25;;;15.70;98.80;;;;;;5014773;28;20537;-72
2021/10/03 12:46:50;;;;;;;3.25;2.42;;;15.70;98.70;;;;;;5014591;28;20069;-73
2021/10/03 12:49:16;;;;;;;3.17;2.30;;;15.60;98.60;;;;;;5013632;28;20045;-73
2021/10/03 12:51:41;;;;;;;4.72;3.17;;;15.60;98.70;;;;;;5013370;28;20022;-79
2021/10/03 12:54:07;;;;;;;3.97;2.50;;;15.60;98.70;;;;;;5013457;28;20037;-79